Time;durP1;ratioP1;P1;durP2;ratioP2;P2;SDS_P1;SDS_P2;PMS_P1;PMS_P2;Temp;Humidity;BMP_temperature;BMP_pressure;BME280_temperature;BME280_humidity;BME280_pressure;Samples;Min_cycle;Max_cycle;Signal;HPM_P1;HPM_P2
2022/08/13 00:01:37;;;;;;;7.03;2.97;;;22.70;66.90;;;;;;5070277;28;20075;-61
2022/08/13 00:04:07;;;;;;;6.05;2.80;;;22.70;66.80;;;;;;5070763;28;20032;-60
2022/08/13 00:09:04;;;;;;;4.45;2.95;;;22.60;68.30;;;;;;5070915;28;20032;-60
2022/08/13 00:14:15;;;;;;;5.30;2.80;;;22.50;69.40;;;;;;5070396;28;20044;-60
2022/08/13 00:16:41;;;;;;;9.30;3.00;;;22.50;70.10;;;;;;5069002;28;20020;-60
2022/08/13 00:19:07;;;;;;;9.40;3.13;;;22.50;69.10;;;;;;5070832;28;20478;-60
2022/08/13 00:21:33;;;;;;;7.30;3.20;;;22.40;68.80;;;;;;5074033;28;20423;-60
2022/08/13 00:23:58;;;;;;;5.55;3.03;;;22.20;70.10;;;;;;5073759;28;20089;-60
2022/08/13 00:26:25;;;;;;;8.45;3.33;;;22.20;70.90;;;;;;5074226;28;20036;-60
2022/08/13 00:28:55;;;;;;;10.00;3.20;;;22.10;71.00;;;;;;5073996;28;20043;-60
2022/08/13 00:31:24;;;;;;;6.95;3.30;;;22.00;71.40;;;;;;5074008;28;20025;-59
2022/08/13 00:33:50;;;;;;;11.95;3.20;;;21.90;71.20;;;;;;5073868;28;20025;-60
2022/08/13 00:36:17;;;;;;;9.18;3.38;;;21.80;71.40;;;;;;5072324;28;20028;-59
2022/08/13 00:38:44;;;;;;;6.53;3.22;;;21.80;71.80;;;;;;5073612;28;20020;-59
2022/08/13 00:41:37;;;;;;;8.15;3.10;;;21.80;72.30;;;;;;5073631;28;20398;-59
2022/08/13 00:43:58;;;;;;;6.35;3.25;;;21.80;72.80;;;;;;5073667;28;20399;-60
2022/08/13 00:46:23;;;;;;;6.88;3.22;;;21.80;72.70;;;;;;5073528;28;20055;-60
2022/08/13 00:48:49;;;;;;;3.53;2.97;;;21.70;72.80;;;;;;5073761;28;20141;-59
2022/08/13 00:51:17;;;;;;;7.07;3.00;;;21.50;72.80;;;;;;5073452;28;20394;-60
2022/08/13 00:53:44;;;;;;;7.63;3.30;;;21.40;73.40;;;;;;5073304;28;20421;-59
2022/08/13 00:56:11;;;;;;;6.15;3.05;;;21.30;73.80;;;;;;5073524;28;20025;-59
2022/08/13 00:58:38;;;;;;;9.52;3.28;;;21.30;74.50;;;;;;5072758;28;20031;-60
2022/08/13 01:01:06;;;;;;;6.93;3.00;;;21.30;75.10;;;;;;5073007;28;20429;-60
2022/08/13 01:03:35;;;;;;;4.80;3.00;;;21.40;75.80;;;;;;5073338;28;20132;-59
2022/08/13 01:06:02;;;;;;;9.68;3.40;;;21.50;76.40;;;;;;5073238;28;20032;-59
2022/08/13 01:08:31;;;;;;;9.18;2.90;;;21.50;76.90;;;;;;5073308;28;20064;-59
2022/08/13 01:11:02;;;;;;;11.23;3.42;;;21.50;76.80;;;;;;5073071;28;20375;-59
2022/08/13 01:13:30;;;;;;;4.35;3.17;;;21.30;77.20;;;;;;5073118;28;20025;-60
2022/08/13 01:15:57;;;;;;;8.68;3.15;;;21.20;77.70;;;;;;5072932;28;20025;-60
2022/08/13 01:18:24;;;;;;;13.75;3.58;;;21.10;78.20;;;;;;5072966;28;20020;-59
2022/08/13 01:21:02;;;;;;;8.40;3.08;;;21.00;79.10;;;;;;5073073;28;20240;-60
2022/08/13 01:23:28;;;;;;;7.03;3.13;;;20.90;79.40;;;;;;5072837;28;20035;-59
2022/08/13 01:25:55;;;;;;;8.18;3.30;;;20.90;79.10;;;;;;5072695;28;20031;-59
2022/08/13 01:28:27;;;;;;;10.32;3.17;;;21.10;79.40;;;;;;5072898;28;20024;-59
2022/08/13 01:30:54;;;;;;;8.13;3.40;;;21.20;80.10;;;;;;5070793;28;20056;-59
2022/08/13 01:33:22;;;;;;;7.25;3.30;;;21.10;81.00;;;;;;5072628;28;20028;-62
2022/08/13 01:35:48;;;;;;;6.63;3.20;;;20.90;82.40;;;;;;5072664;28;20028;-63
2022/08/13 01:38:14;;;;;;;5.70;2.85;;;20.80;82.40;;;;;;5073203;28;20496;-63
2022/08/13 01:40:42;;;;;;;11.50;3.55;;;20.80;85.00;;;;;;5073474;28;20036;-62
2022/08/13 01:43:08;;;;;;;4.97;3.50;;;20.80;85.90;;;;;;5072789;28;20496;-63
2022/08/13 01:45:34;;;;;;;7.18;3.25;;;20.80;85.10;;;;;;5072714;28;20385;-62
2022/08/13 01:50:44;;;;;;;7.45;3.47;;;20.80;86.80;;;;;;5072561;28;20036;-62
2022/08/13 01:53:13;;;;;;;9.25;3.58;;;20.80;86.60;;;;;;5072255;28;20092;-63
2022/08/13 01:55:42;;;;;;;9.07;3.35;;;20.90;86.90;;;;;;5072272;28;20021;-64
2022/08/13 01:58:13;;;;;;;6.20;3.50;;;20.90;87.70;;;;;;5072337;28;20091;-63
2022/08/13 02:00:45;;;;;;;8.20;3.30;;;20.80;87.90;;;;;;5070940;28;20041;-63
2022/08/13 02:03:11;;;;;;;6.57;2.97;;;20.70;89.00;;;;;;5072220;28;20032;-63
2022/08/13 02:05:39;;;;;;;4.80;3.60;;;20.70;89.40;;;;;;5072624;28;20036;-64
2022/08/13 02:08:08;;;;;;;5.22;3.45;;;20.70;89.60;;;;;;5072390;28;20027;-63
2022/08/13 02:10:36;;;;;;;13.23;3.50;;;20.70;90.20;;;;;;5071789;28;20107;-64
2022/08/13 02:13:03;;;;;;;6.50;3.30;;;20.60;90.30;;;;;;5072158;28;20024;-63
2022/08/13 02:15:29;;;;;;;4.47;3.13;;;20.60;90.80;;;;;;5070799;28;20514;-63
2022/08/13 02:17:55;;;;;;;8.07;3.30;;;20.50;91.80;;;;;;5072034;28;20099;-63
2022/08/13 02:20:20;;;;;;;9.48;3.45;;;20.50;92.00;;;;;;5071974;28;20073;-61
2022/08/13 02:22:48;;;;;;;6.10;3.30;;;20.50;92.20;;;;;;5072118;28;20195;-63
2022/08/13 02:25:20;;;;;;;6.25;3.60;;;20.50;92.60;;;;;;5071953;28;20096;-62
2022/08/13 02:27:48;;;;;;;6.43;3.38;;;20.40;93.10;;;;;;5070642;28;20498;-62
2022/08/13 02:30:17;;;;;;;11.27;3.95;;;20.50;92.80;;;;;;5072144;28;20389;-62
2022/08/13 02:32:43;;;;;;;6.90;3.53;;;20.40;92.90;;;;;;5071656;28;20051;-62
2022/08/13 02:35:08;;;;;;;6.35;3.42;;;20.40;93.40;;;;;;5072009;28;20040;-62
2022/08/13 02:37:36;;;;;;;8.77;3.35;;;20.30;94.50;;;;;;5071765;28;20029;-62
2022/08/13 02:40:04;;;;;;;4.63;3.67;;;20.30;94.70;;;;;;5071543;28;20075;-62
2022/08/13 02:42:31;;;;;;;6.95;3.55;;;20.30;95.10;;;;;;5071028;28;20047;-62
2022/08/13 02:44:57;;;;;;;9.80;3.55;;;20.40;94.40;;;;;;5071042;28;20024;-61
2022/08/13 02:47:25;;;;;;;12.77;3.20;;;20.50;94.70;;;;;;5071567;28;20036;-62
2022/08/13 02:49:51;;;;;;;5.43;3.40;;;20.50;94.90;;;;;;5072053;28;20051;-62
2022/08/13 02:52:21;;;;;;;8.38;3.30;;;20.40;94.80;;;;;;5070129;28;20036;-61
2022/08/13 02:54:49;;;;;;;13.48;3.85;;;20.30;94.90;;;;;;5071769;28;20023;-61
2022/08/13 02:57:15;;;;;;;8.52;3.85;;;20.20;95.70;;;;;;5071372;28;20579;-62
2022/08/13 02:59:44;;;;;;;6.68;3.70;;;20.20;95.40;;;;;;5071701;28;20051;-62
2022/08/13 03:02:10;;;;;;;7.15;3.85;;;20.20;95.90;;;;;;5071306;28;20032;-62
2022/08/13 03:04:36;;;;;;;7.10;3.92;;;20.20;96.00;;;;;;5070385;28;20059;-61
2022/08/13 03:07:03;;;;;;;7.78;3.55;;;20.10;96.00;;;;;;5071210;28;20103;-62
2022/08/13 03:09:37;;;;;;;7.80;3.53;;;20.00;96.20;;;;;;5070226;28;20039;-62
2022/08/13 03:12:06;;;;;;;4.90;3.30;;;19.90;96.70;;;;;;5071271;28;20032;-62
2022/08/13 03:14:34;;;;;;;9.27;3.60;;;19.80;97.40;;;;;;5071355;28;20111;-63
2022/08/13 03:16:59;;;;;;;9.48;3.67;;;19.80;97.30;;;;;;5069913;28;20109;-63
2022/08/13 03:19:25;;;;;;;5.95;3.70;;;19.80;97.60;;;;;;5070518;28;20497;-62
2022/08/13 03:21:51;;;;;;;7.32;3.65;;;19.80;98.00;;;;;;5071718;28;20029;-62
2022/08/13 03:24:18;;;;;;;5.40;3.50;;;19.90;98.20;;;;;;5070980;28;20031;-63
2022/08/13 03:26:47;;;;;;;7.25;3.55;;;19.70;98.90;;;;;;5071485;28;20477;-63
2022/08/13 03:29:14;;;;;;;5.03;3.72;;;19.60;99.70;;;;;;5071345;28;20028;-62
2022/08/13 03:31:40;;;;;;;6.32;3.70;;;19.60;99.90;;;;;;5071083;28;20024;-63
2022/08/13 03:34:06;;;;;;;7.10;4.10;;;19.70;99.70;;;;;;5071129;28;20078;-62
2022/08/13 03:36:34;;;;;;;6.35;3.78;;;19.40;99.90;;;;;;5071711;28;20534;-63
2022/08/13 03:39:00;;;;;;;10.15;3.80;;;19.40;99.90;;;;;;5071131;28;20020;-62
2022/08/13 03:41:26;;;;;;;7.88;4.00;;;19.40;99.90;;;;;;5071421;28;20060;-63
2022/08/13 03:43:53;;;;;;;6.55;3.97;;;19.40;99.90;;;;;;5071248;28;20056;-63
2022/08/13 03:46:22;;;;;;;8.85;3.50;;;19.30;99.90;;;;;;5071518;28;20031;-63
2022/08/13 03:48:49;;;;;;;5.85;3.97;;;19.30;99.90;;;;;;5071571;28;20471;-62
2022/08/13 03:51:16;;;;;;;5.40;3.72;;;19.30;99.90;;;;;;5071337;28;20067;-62
2022/08/13 03:53:43;;;;;;;6.07;4.13;;;19.40;99.90;;;;;;5071442;28;20017;-63
2022/08/13 03:56:09;;;;;;;6.43;3.75;;;19.40;99.90;;;;;;5074648;28;20025;-62
2022/08/13 03:58:37;;;;;;;8.80;4.35;;;19.40;99.90;;;;;;5075595;28;20095;-62
2022/08/13 04:01:04;;;;;;;6.20;4.20;;;19.20;99.90;;;;;;5075014;28;20049;-62
2022/08/13 04:03:41;;;;;;;5.25;4.30;;;19.00;99.90;;;;;;5075214;28;20049;-62
2022/08/13 04:06:16;;;;;;;10.55;4.20;;;18.80;99.90;;;;;;5075280;28;20044;-62
2022/08/13 04:08:44;;;;;;;12.48;3.70;;;18.80;99.90;;;;;;5075055;28;20024;-62
2022/08/13 04:11:12;;;;;;;7.90;4.03;;;18.70;99.90;;;;;;5074568;28;20154;-63
2022/08/13 04:13:38;;;;;;;9.35;4.32;;;18.70;99.90;;;;;;5074958;28;20548;-63
2022/08/13 04:16:11;;;;;;;8.55;4.15;;;18.70;99.90;;;;;;5074707;28;20092;-63
2022/08/13 04:18:48;;;;;;;8.43;4.07;;;18.80;99.90;;;;;;5075266;28;20484;-63
2022/08/13 04:21:15;;;;;;;7.32;4.07;;;18.80;99.90;;;;;;5074813;28;20029;-63
2022/08/13 04:23:43;;;;;;;8.98;3.70;;;18.90;99.90;;;;;;5074505;28;20028;-63
2022/08/13 04:26:14;;;;;;;7.03;4.35;;;19.00;99.90;;;;;;5075264;28;20497;-63
2022/08/13 04:28:41;;;;;;;7.57;4.63;;;18.90;99.90;;;;;;5075285;28;20366;-62
2022/08/13 04:31:10;;;;;;;8.95;4.50;;;18.70;99.90;;;;;;5074372;28;20017;-62
2022/08/13 04:33:36;;;;;;;10.13;4.10;;;18.60;99.90;;;;;;5074492;28;20020;-62
2022/08/13 04:36:03;;;;;;;6.00;4.03;;;18.70;99.90;;;;;;5074577;28;20159;-62
2022/08/13 04:38:29;;;;;;;12.90;4.53;;;18.60;99.90;;;;;;5072959;28;20043;-62
2022/08/13 04:40:55;;;;;;;10.07;4.20;;;18.70;99.90;;;;;;5074114;28;20020;-62
2022/08/13 04:43:21;;;;;;;8.55;4.60;;;18.60;99.90;;;;;;5074101;28;20074;-63
2022/08/13 04:45:47;;;;;;;12.15;4.18;;;18.60;99.90;;;;;;5073952;28;20028;-63
2022/08/13 04:48:15;;;;;;;7.10;3.85;;;18.50;99.90;;;;;;5074624;28;20020;-63
2022/08/13 04:50:43;;;;;;;11.40;4.13;;;18.60;99.90;;;;;;5074324;28;20016;-63
2022/08/13 04:53:30;;;;;;;6.28;4.18;;;18.50;99.90;;;;;;5073680;28;20033;-62
2022/08/13 04:55:57;;;;;;;6.30;4.40;;;18.50;99.90;;;;;;5073611;28;20074;-62
2022/08/13 04:58:24;;;;;;;9.73;3.80;;;18.40;99.90;;;;;;5074098;28;20111;-62
2022/08/13 05:00:50;;;;;;;9.93;3.90;;;18.40;99.90;;;;;;5073681;28;20124;-63
2022/08/13 05:03:23;;;;;;;9.55;4.15;;;18.40;99.90;;;;;;5074129;28;20107;-63
2022/08/13 05:05:51;;;;;;;11.13;4.20;;;18.40;99.90;;;;;;5072821;28;20025;-62
2022/08/13 05:08:18;;;;;;;5.32;3.60;;;18.50;99.90;;;;;;5073669;28;20028;-62
2022/08/13 05:10:46;;;;;;;10.57;4.00;;;18.70;99.90;;;;;;5073825;28;20029;-63
2022/08/13 05:13:39;;;;;;;7.22;3.75;;;18.70;99.90;;;;;;5074101;28;20028;-63
2022/08/13 05:16:08;;;;;;;9.82;4.50;;;18.80;99.90;;;;;;5070825;28;20036;-62
2022/08/13 05:18:37;;;;;;;11.38;4.10;;;19.00;99.90;;;;;;5072329;28;20501;-63
2022/08/13 05:21:08;;;;;;;11.23;3.72;;;19.00;99.90;;;;;;5073328;28;20449;-63
2022/08/13 05:23:36;;;;;;;8.02;3.90;;;18.90;99.90;;;;;;5073359;28;20031;-63
2022/08/13 05:26:02;;;;;;;10.77;4.05;;;18.80;99.90;;;;;;5073562;28;20047;-63
2022/08/13 05:28:30;;;;;;;13.13;4.10;;;18.90;99.90;;;;;;5073341;28;20024;-62
2022/08/13 05:30:56;;;;;;;13.75;4.13;;;19.10;99.90;;;;;;5072981;28;20021;-63
2022/08/13 05:33:24;;;;;;;7.43;4.10;;;19.20;99.90;;;;;;5073912;28;20036;-62
2022/08/13 05:36:01;;;;;;;7.93;4.03;;;19.40;99.90;;;;;;5071774;28;20103;-63
2022/08/13 05:38:28;;;;;;;12.40;5.13;;;19.40;99.90;;;;;;5073179;28;20017;-62
2022/08/13 05:40:56;;;;;;;7.57;4.68;;;19.50;99.90;;;;;;5072942;28;20025;-62
2022/08/13 05:43:24;;;;;;;7.53;4.00;;;19.60;99.90;;;;;;5072858;28;20570;-62
2022/08/13 05:45:57;;;;;;;12.20;4.68;;;19.70;99.90;;;;;;5072330;28;20021;-62
2022/08/13 05:48:23;;;;;;;9.27;4.35;;;19.90;99.90;;;;;;5071850;28;20051;-63
2022/08/13 05:50:49;;;;;;;10.05;4.65;;;19.90;99.90;;;;;;5073004;28;20031;-63
2022/08/13 05:53:15;;;;;;;13.27;4.28;;;20.10;99.90;;;;;;5072861;28;20020;-65
2022/08/13 05:55:41;;;;;;;8.02;4.25;;;20.20;99.90;;;;;;5072749;28;20081;-64
2022/08/13 05:58:10;;;;;;;10.88;4.40;;;20.50;99.90;;;;;;5071631;28;20021;-63
2022/08/13 06:03:27;;;;;;;11.32;4.78;;;20.80;99.90;;;;;;5072705;28;20048;-63
2022/08/13 06:05:55;;;;;;;8.55;4.47;;;20.90;99.90;;;;;;5072241;28;20463;-62
2022/08/13 06:08:28;;;;;;;9.90;4.68;;;20.90;99.90;;;;;;5072436;28;20062;-62
2022/08/13 06:10:55;;;;;;;6.97;4.50;;;21.00;99.90;;;;;;5072154;28;20032;-63
2022/08/13 06:13:21;;;;;;;11.38;4.65;;;21.10;99.90;;;;;;5072130;28;20020;-62
2022/08/13 06:15:57;;;;;;;10.05;4.50;;;21.10;99.90;;;;;;5071908;28;20017;-62
2022/08/13 06:18:24;;;;;;;9.65;4.38;;;21.20;99.90;;;;;;5071759;28;20523;-62
2022/08/13 06:20:52;;;;;;;9.82;4.32;;;21.10;99.90;;;;;;5070512;28;20548;-62
2022/08/13 06:23:19;;;;;;;8.80;4.60;;;21.30;99.90;;;;;;5070326;28;20470;-62
2022/08/13 06:25:46;;;;;;;6.88;4.40;;;21.50;99.90;;;;;;5071625;28;20017;-63
2022/08/13 06:28:15;;;;;;;6.68;4.50;;;21.80;99.90;;;;;;5072080;28;20112;-62
2022/08/13 06:30:43;;;;;;;8.40;4.82;;;22.00;99.90;;;;;;5071643;28;20067;-63
2022/08/13 06:33:09;;;;;;;12.02;4.85;;;22.30;98.60;;;;;;5071380;28;20496;-63
2022/08/13 06:35:35;;;;;;;9.45;4.53;;;22.40;98.50;;;;;;5071577;28;20465;-63
2022/08/13 06:38:05;;;;;;;8.40;4.65;;;22.50;98.40;;;;;;5072135;28;20077;-63
2022/08/13 06:40:35;;;;;;;13.07;4.72;;;22.60;97.70;;;;;;5071568;28;20035;-63
2022/08/13 06:43:02;;;;;;;13.75;4.70;;;22.50;95.50;;;;;;5070171;28;20039;-63
2022/08/13 06:45:32;;;;;;;9.60;4.82;;;22.50;96.00;;;;;;5070373;28;20030;-63
2022/08/13 06:47:58;;;;;;;11.98;5.18;;;22.60;95.20;;;;;;5071713;28;20037;-63
2022/08/13 06:50:24;;;;;;;14.25;5.05;;;22.60;96.00;;;;;;5071298;28;20025;-64
2022/08/13 06:52:49;;;;;;;7.18;4.47;;;22.60;96.50;;;;;;5071037;28;20356;-63
2022/08/13 06:55:17;;;;;;;11.63;4.88;;;22.50;95.10;;;;;;5071478;28;20035;-63
2022/08/13 06:57:45;;;;;;;8.10;4.30;;;22.40;96.10;;;;;;5071148;28;20029;-63
2022/08/13 07:00:11;;;;;;;11.02;4.85;;;22.30;96.10;;;;;;5071055;28;20155;-63
2022/08/13 07:02:40;;;;;;;6.60;3.75;;;22.40;95.50;;;;;;5071199;28;20032;-63
2022/08/13 07:05:06;;;;;;;8.00;3.95;;;22.40;95.50;;;;;;5071272;28;20024;-63
2022/08/13 07:07:33;;;;;;;6.35;3.58;;;22.40;95.40;;;;;;5071289;28;20551;-63
2022/08/13 07:10:00;;;;;;;7.30;3.97;;;22.60;94.80;;;;;;5071149;28;20028;-63
2022/08/13 07:12:25;;;;;;;7.30;3.42;;;22.80;95.40;;;;;;5070947;28;20036;-63
2022/08/13 07:14:51;;;;;;;8.48;3.45;;;23.30;93.40;;;;;;5070825;28;20451;-63
2022/08/13 07:17:20;;;;;;;9.15;3.22;;;24.70;90.80;;;;;;5070185;28;20035;-63
2022/08/13 07:19:45;;;;;;;7.43;3.33;;;26.40;80.60;;;;;;5072134;28;20086;-64
2022/08/13 07:22:11;;;;;;;10.90;3.45;;;28.30;73.30;;;;;;5071328;28;20502;-65
2022/08/13 07:24:37;;;;;;;5.57;2.40;;;29.50;66.80;;;;;;5071088;28;20033;-65
2022/08/13 07:27:07;;;;;;;5.00;2.75;;;30.80;62.60;;;;;;5070952;28;20111;-65
2022/08/13 07:29:35;;;;;;;9.35;2.75;;;31.20;59.10;;;;;;5073816;28;20049;-64
2022/08/13 07:32:03;;;;;;;6.03;2.58;;;30.60;59.60;;;;;;5077311;28;20027;-64
2022/08/13 07:34:32;;;;;;;3.38;2.28;;;31.30;59.50;;;;;;5076629;28;20055;-64
2022/08/13 07:36:59;;;;;;;4.20;2.35;;;32.10;57.50;;;;;;5076289;28;20186;-64
2022/08/13 07:39:26;;;;;;;5.90;2.15;;;32.10;56.20;;;;;;5077467;28;20029;-65
2022/08/13 07:41:52;;;;;;;5.80;2.30;;;31.30;56.60;;;;;;5077471;28;20414;-64
2022/08/13 07:44:23;;;;;;;5.07;2.42;;;30.70;57.30;;;;;;5077380;28;20108;-64
2022/08/13 07:46:51;;;;;;;3.95;1.95;;;30.10;58.80;;;;;;5076111;28;20085;-64
2022/08/13 07:49:18;;;;;;;4.10;2.00;;;30.60;57.80;;;;;;5077648;28;20056;-64
2022/08/13 07:51:46;;;;;;;5.05;2.15;;;30.90;57.40;;;;;;5077220;28;20024;-64
2022/08/13 07:54:12;;;;;;;6.53;1.90;;;31.00;58.00;;;;;;5077295;28;20415;-64
2022/08/13 07:56:39;;;;;;;5.47;2.03;;;32.00;57.10;;;;;;5077406;28;20024;-64
2022/08/13 07:59:11;;;;;;;9.25;2.63;;;32.10;56.30;;;;;;5077396;28;20021;-64
2022/08/13 08:01:49;;;;;;;4.35;1.73;;;31.80;57.10;;;;;;5077131;28;20069;-64
2022/08/13 08:04:16;;;;;;;7.55;2.00;;;32.50;55.90;;;;;;5077077;28;20090;-65
2022/08/13 08:06:47;;;;;;;3.88;1.60;;;33.40;54.50;;;;;;5077256;28;20090;-65
2022/08/13 08:09:22;;;;;;;2.10;1.60;;;33.80;53.10;;;;;;5077487;28;20115;-65
2022/08/13 08:14:37;;;;;;;2.72;1.50;;;33.30;52.10;;;;;;5077494;28;20047;-64
2022/08/13 08:17:05;;;;;;;5.22;1.38;;;32.80;53.20;;;;;;5075766;28;20046;-65
2022/08/13 08:19:31;;;;;;;5.80;1.60;;;33.00;53.00;;;;;;5075757;28;20032;-64
2022/08/13 08:21:59;;;;;;;3.17;1.38;;;33.10;52.70;;;;;;5076932;28;20032;-64
2022/08/13 08:24:26;;;;;;;2.25;1.20;;;33.60;51.30;;;;;;5077170;28;20036;-64
2022/08/13 08:26:55;;;;;;;3.72;1.30;;;33.60;51.30;;;;;;5077196;28;20058;-64
2022/08/13 08:29:21;;;;;;;3.42;1.08;;;33.80;50.70;;;;;;5076865;28;20147;-65
2022/08/13 08:31:48;;;;;;;4.05;1.30;;;33.90;50.00;;;;;;5077185;28;20512;-65
2022/08/13 08:34:17;;;;;;;2.17;1.30;;;33.30;50.50;;;;;;5077221;28;20017;-65
2022/08/13 08:36:43;;;;;;;1.35;1.08;;;33.50;51.30;;;;;;5077524;28;20494;-64
2022/08/13 08:44:42;;;;;;;2.47;1.13;;;33.30;51.70;;;;;;5074539;28;20109;-65
2022/08/13 08:47:08;;;;;;;5.80;1.58;;;33.40;51.10;;;;;;5073948;28;20496;-64
2022/08/13 08:49:36;;;;;;;3.15;1.27;;;33.00;51.50;;;;;;5074175;28;20112;-64
2022/08/13 08:52:02;;;;;;;3.95;1.50;;;33.20;51.20;;;;;;5073760;28;20060;-65
2022/08/13 08:54:29;;;;;;;2.30;1.10;;;34.00;49.90;;;;;;5073394;28;20398;-65
2022/08/13 08:56:56;;;;;;;2.05;1.10;;;34.40;49.50;;;;;;5084166;28;20032;-65
2022/08/13 08:59:41;;;;;;;5.05;1.23;;;34.60;48.80;;;;;;5073436;28;20490;-65
2022/08/13 09:02:24;;;;;;;3.22;1.00;;;34.60;48.90;;;;;;5073308;28;20020;-65
2022/08/13 09:04:54;;;;;;;3.88;1.10;;;34.80;48.70;;;;;;5073119;28;20037;-65
2022/08/13 09:07:23;;;;;;;5.55;1.70;;;35.20;48.90;;;;;;5055801;28;20489;-66
2022/08/13 09:09:54;;;;;;;8.70;1.08;;;35.10;47.90;;;;;;5072030;28;20040;-66
2022/08/13 09:12:25;;;;;;;3.65;1.10;;;35.30;48.50;;;;;;5073188;28;20489;-65
2022/08/13 09:14:52;;;;;;;3.95;1.10;;;35.90;48.80;;;;;;5073648;28;20025;-62
2022/08/13 09:17:19;;;;;;;4.40;1.30;;;35.30;48.50;;;;;;5073318;28;20082;-63
2022/08/13 09:19:44;;;;;;;4.20;1.20;;;34.90;48.10;;;;;;5074123;28;20496;-62
2022/08/13 09:22:14;;;;;;;2.53;1.10;;;35.30;48.10;;;;;;5072996;28;20040;-64
2022/08/13 09:24:45;;;;;;;2.92;1.20;;;36.30;47.00;;;;;;5072989;28;20028;-65
2022/08/13 09:27:16;;;;;;;4.43;1.00;;;37.30;46.50;;;;;;5073086;28;20469;-65
2022/08/13 09:29:42;;;;;;;3.15;0.70;;;36.90;45.30;;;;;;5073052;28;20036;-65
2022/08/13 09:32:09;;;;;;;2.75;0.90;;;36.20;45.00;;;;;;5072628;28;20029;-65
2022/08/13 09:34:39;;;;;;;4.05;1.02;;;35.80;46.20;;;;;;5073066;28;20108;-66
2022/08/13 09:37:07;;;;;;;2.10;1.00;;;35.30;47.10;;;;;;5072840;28;20078;-65
2022/08/13 09:39:36;;;;;;;2.45;1.10;;;35.00;47.40;;;;;;5072689;28;20027;-65
2022/08/13 09:42:07;;;;;;;4.43;0.98;;;35.10;46.70;;;;;;5072761;28;20039;-64
2022/08/13 09:44:37;;;;;;;2.38;1.05;;;34.80;46.40;;;;;;5072858;28;20040;-64
2022/08/13 09:47:03;;;;;;;4.90;0.88;;;35.00;46.10;;;;;;5072834;28;20059;-65
2022/08/13 09:49:29;;;;;;;1.48;0.82;;;35.40;46.10;;;;;;5072923;28;20056;-65
2022/08/13 09:51:55;;;;;;;5.18;0.95;;;36.00;44.90;;;;;;5072129;28;20025;-65
2022/08/13 09:54:22;;;;;;;3.55;1.27;;;37.00;44.10;;;;;;5072635;28;20028;-65
2022/08/13 09:56:48;;;;;;;1.63;0.70;;;37.60;43.40;;;;;;5072319;28;20016;-66
2022/08/13 09:59:13;;;;;;;1.98;0.75;;;38.20;41.90;;;;;;5072696;28;20071;-65
2022/08/13 10:01:40;;;;;;;0.70;0.65;;;36.80;42.50;;;;;;5072468;28;20111;-66
2022/08/13 10:04:06;;;;;;;5.35;0.73;;;36.10;43.40;;;;;;5072119;28;20028;-66
2022/08/13 10:06:32;;;;;;;2.40;0.60;;;35.90;43.20;;;;;;5072332;28;20025;-66
2022/08/13 10:09:00;;;;;;;1.15;0.70;;;35.60;43.40;;;;;;5072171;28;20047;-65
2022/08/13 10:11:27;;;;;;;4.10;0.90;;;35.70;44.00;;;;;;5072038;28;20107;-65
2022/08/13 10:13:57;;;;;;;2.25;1.05;;;36.40;43.20;;;;;;5072030;28;20020;-66
2022/08/13 10:16:22;;;;;;;1.17;0.73;;;36.50;42.50;;;;;;5071727;28;20029;-66
2022/08/13 10:18:48;;;;;;;0.82;0.70;;;35.90;42.80;;;;;;5072362;28;20035;-66
2022/08/13 10:21:14;;;;;;;1.38;0.90;;;35.20;43.70;;;;;;5071832;28;20035;-66
2022/08/13 10:23:40;;;;;;;1.77;0.93;;;35.50;44.10;;;;;;5071797;28;20095;-66
2022/08/13 10:26:07;;;;;;;5.22;1.20;;;35.80;44.30;;;;;;5072055;28;20481;-65
2022/08/13 10:28:36;;;;;;;1.67;0.82;;;36.80;43.20;;;;;;5071906;28;20432;-65
2022/08/13 10:31:07;;;;;;;3.25;0.80;;;37.80;41.50;;;;;;5069995;28;20047;-66
2022/08/13 10:33:37;;;;;;;0.80;0.68;;;36.80;41.40;;;;;;5071993;28;20033;-64
2022/08/13 10:36:05;;;;;;;1.10;0.75;;;36.20;42.40;;;;;;5071547;28;20090;-65
2022/08/13 10:38:32;;;;;;;1.85;0.80;;;36.10;42.30;;;;;;5071823;28;20021;-65
2022/08/13 10:41:07;;;;;;;2.08;0.68;;;35.90;42.30;;;;;;5071408;28;20023;-65
2022/08/13 10:43:39;;;;;;;3.83;0.73;;;36.00;42.00;;;;;;5071558;28;20055;-65
2022/08/13 10:46:09;;;;;;;1.88;0.82;;;36.60;42.20;;;;;;5071739;28;20032;-65
2022/08/13 10:48:35;;;;;;;2.50;0.77;;;36.10;41.30;;;;;;5071741;28;20397;-65
2022/08/13 10:51:00;;;;;;;3.15;0.80;;;36.50;40.80;;;;;;5071734;28;20020;-65
2022/08/13 10:56:11;;;;;;;3.20;0.98;;;35.70;41.60;;;;;;5071382;28;20453;-65
2022/08/13 10:58:38;;;;;;;2.38;0.90;;;36.20;41.60;;;;;;5071270;28;20028;-65
2022/08/13 11:01:04;;;;;;;4.63;0.75;;;36.60;40.70;;;;;;5071304;28;20044;-64
2022/08/13 11:03:31;;;;;;;2.83;0.80;;;36.60;40.30;;;;;;5069665;28;20385;-65
2022/08/13 11:05:59;;;;;;;3.05;0.90;;;37.50;39.90;;;;;;5070435;28;20495;-65
2022/08/13 11:08:26;;;;;;;2.80;0.75;;;38.50;39.20;;;;;;5071059;28;20025;-66
2022/08/13 11:10:52;;;;;;;3.28;0.75;;;38.60;38.90;;;;;;5071013;28;20073;-66
2022/08/13 11:13:17;;;;;;;3.83;0.70;;;37.80;40.10;;;;;;5071132;28;20059;-66
2022/08/13 11:15:43;;;;;;;1.10;0.68;;;38.50;39.50;;;;;;5071429;28;20013;-66
2022/08/13 11:18:09;;;;;;;1.95;0.60;;;39.30;38.60;;;;;;5071145;28;20114;-65
2022/08/13 11:21:02;;;;;;;1.15;0.60;;;39.30;38.20;;;;;;5070753;28;20063;-66
2022/08/13 11:23:20;;;;;;;1.38;0.50;;;39.70;37.80;;;;;;5070909;28;20043;-65
2022/08/13 11:25:46;;;;;;;2.20;0.60;;;37.50;38.60;;;;;;5071014;28;20017;-66
2022/08/13 11:28:22;;;;;;;4.18;0.70;;;37.00;40.00;;;;;;5071461;28;20110;-66
2022/08/13 11:30:49;;;;;;;0.98;0.60;;;37.50;39.10;;;;;;5071210;28;20114;-66
2022/08/13 11:33:14;;;;;;;3.15;0.80;;;38.40;37.90;;;;;;5070953;28;20115;-66
2022/08/13 11:35:41;;;;;;;3.03;0.60;;;39.40;37.70;;;;;;5071031;28;20128;-65
2022/08/13 11:38:13;;;;;;;3.33;1.10;;;39.10;36.90;;;;;;5071206;28;20397;-66
2022/08/13 11:40:45;;;;;;;4.45;0.80;;;39.10;37.30;;;;;;5070818;28;20032;-66
2022/08/13 11:43:10;;;;;;;1.42;0.98;;;39.50;37.10;;;;;;5070685;28;20125;-66
2022/08/13 11:45:36;;;;;;;3.35;0.70;;;39.80;36.30;;;;;;5070785;28;20055;-66
2022/08/13 11:48:05;;;;;;;1.40;0.90;;;39.40;36.90;;;;;;5070744;28;20481;-67
2022/08/13 11:50:31;;;;;;;3.00;0.75;;;39.50;37.10;;;;;;5070531;28;20025;-67
2022/08/13 11:53:10;;;;;;;2.22;0.70;;;40.20;36.90;;;;;;5069474;28;20085;-66
2022/08/13 11:55:36;;;;;;;4.43;1.17;;;40.50;36.10;;;;;;5070916;28;20021;-66
2022/08/13 11:58:05;;;;;;;2.38;0.70;;;39.80;36.90;;;;;;5070949;28;20021;-65
2022/08/13 12:00:33;;;;;;;2.38;0.80;;;38.20;37.70;;;;;;5070519;28;20051;-66
2022/08/13 12:02:58;;;;;;;4.55;1.40;;;37.80;38.60;;;;;;5070842;28;20040;-65
2022/08/13 12:05:24;;;;;;;2.53;0.80;;;37.90;39.00;;;;;;5071015;28;20112;-67
2022/08/13 12:07:50;;;;;;;0.85;0.70;;;39.00;37.80;;;;;;5071092;28;20033;-67
2022/08/13 12:10:16;;;;;;;1.23;0.90;;;39.40;37.20;;;;;;5070824;28;20028;-66
2022/08/13 12:12:43;;;;;;;5.07;0.90;;;38.70;37.60;;;;;;5070762;28;20024;-67
2022/08/13 12:15:10;;;;;;;1.40;0.70;;;38.70;38.10;;;;;;5071066;28;20440;-67
2022/08/13 12:17:43;;;;;;;3.55;0.80;;;39.30;37.50;;;;;;5074576;28;20031;-66
2022/08/13 12:20:11;;;;;;;2.95;0.85;;;39.80;36.80;;;;;;5075073;28;20020;-66
2022/08/13 12:22:37;;;;;;;3.22;0.70;;;40.10;36.50;;;;;;5074729;28;20035;-66
2022/08/13 12:25:04;;;;;;;1.38;0.60;;;40.60;36.30;;;;;;5074637;28;20389;-65
2022/08/13 12:27:29;;;;;;;3.55;0.80;;;40.00;37.10;;;;;;5074435;28;20043;-66
2022/08/13 12:29:55;;;;;;;2.63;1.35;;;39.40;36.90;;;;;;5074419;28;20028;-66
2022/08/13 12:32:21;;;;;;;3.53;0.80;;;39.80;37.00;;;;;;5074612;28;20158;-65
2022/08/13 12:34:47;;;;;;;2.88;0.70;;;40.30;36.30;;;;;;5074177;28;20066;-66
2022/08/13 12:37:12;;;;;;;1.63;0.80;;;39.70;36.90;;;;;;5074255;28;20051;-66
2022/08/13 12:39:38;;;;;;;3.38;0.90;;;39.70;36.60;;;;;;5074038;28;20480;-66
2022/08/13 12:42:04;;;;;;;2.95;0.80;;;39.30;37.40;;;;;;5073751;28;20025;-66
2022/08/13 12:44:29;;;;;;;4.88;0.90;;;38.60;37.60;;;;;;5074451;28;20090;-66
2022/08/13 12:46:55;;;;;;;1.60;1.00;;;38.90;37.50;;;;;;5073916;28;20032;-66
2022/08/13 12:49:20;;;;;;;1.33;0.77;;;39.10;37.10;;;;;;5074387;28;20277;-66
2022/08/13 12:51:46;;;;;;;3.33;0.90;;;40.40;37.00;;;;;;5073817;28;20020;-66
2022/08/13 12:54:12;;;;;;;1.50;0.80;;;40.40;37.40;;;;;;5073433;28;20033;-66
2022/08/13 12:56:37;;;;;;;3.00;0.77;;;40.30;37.00;;;;;;5074002;28;20531;-66
2022/08/13 12:59:03;;;;;;;6.75;0.85;;;40.70;36.80;;;;;;5073944;28;20067;-65
2022/08/13 13:01:32;;;;;;;8.18;1.40;;;41.20;36.40;;;;;;5074103;28;20401;-66
2022/08/13 13:03:58;;;;;;;2.53;0.70;;;41.60;36.10;;;;;;5074351;28;20028;-65
2022/08/13 13:06:23;;;;;;;2.90;0.73;;;41.30;35.40;;;;;;5073935;28;20033;-65
2022/08/13 13:08:49;;;;;;;1.33;0.80;;;41.10;36.50;;;;;;5074122;28;20130;-66
2022/08/13 13:11:15;;;;;;;1.95;0.70;;;41.60;35.70;;;;;;5073661;28;20021;-65